Garrison, NY (10524)

5:17 AM EDT on April 27, 2017 (GMT -0400)
Old Albany Post Road | | Change Station
Active Advisory: Dense Fog Advisory

Elev 702 ft 41.35 °N, 73.91 °W | Updated 4 minutes ago

Overcast
Overcast
56.9 °F
Feels Like 56.9 °F
N
0.0
Wind Variable Wind from South

Today
High -- | Low -- °F
--% Chance of Precip.
Yesterday
High -- | Low -- °F
Precip. -- in
Pressure 29.86 in
Visibility 2.0 miles
Clouds Overcast 300 ft
Dew Point 57 °F
Humidity 99%
Rainfall 0.06 in
Snow Depth Not available.
5:58 AM 7:49 PM
New Moon, 1% visible
METAR KSWF 270845Z 00000KT 2SM BR OVC003 14/14 A2986
Pressure 29.86 in
Visibility 2.0 miles
Clouds Overcast 300 ft
Dew Point 57 °F
Humidity 99%
Rainfall 0.06 in
Snow Depth Not available.
5:58 AM 7:49 PM
New Moon, 1% visible
METAR KSWF 270845Z 00000KT 2SM BR OVC003 14/14 A2986

Get Your Daily Forecast Email!

Thanks for signing up!

Be on the lookout for a verification email in your inbox.

You'll start receiving severe weather alerts in your inbox..

×

10-Day Weather Forecast

Almanac

Astronomy

Apr. 27, 2017 Rise Set
Actual Time
Civil Twilight
Nautical Twilight
Astronomical Twilight
Moon
Length of Visible Light
Length of Day
Tomorrow will be .
, % of the Moon is Illuminated

Today's Extremes

State Highs State Lows

Community

WunderPhotos

WunderBlog® & News

Nearby

Air Quality

  Air Quality AQ Index Pollutant
Not available.

Snow Depth

Station Depth Elevation

Earthquake Activity

City Distance Mag. Time & Date
Minimum magnitude displayed is 2.5.

Coastal Water Temperatures

Place Temperature

Stations

Nearby Weather Stations

Station Location Temp. Windchill Dew Point Humidity Wind Precip. Elev Updated Type
                   

Watches & Warnings

Dense Fog Advisory
Issued: 3:29 AM EDT Apr. 27, 2017 – National Weather Service

... Dense fog advisory remains in effect until 8 am EDT this
morning...

* visibilities... one quarter mile or less at times.

* Timing... this morning.

* Impacts... reduced visibilities will make travel difficult.

Precautionary/preparedness actions...

A dense fog advisory means visibilities will frequently be
reduced to one quarter mile or less. If driving... slow down... use
your low beam headlights... and leave plenty of distance ahead of
you in case a sudden stop is needed.